Time;durP1;ratioP1;P1;durP2;ratioP2;P2;SDS_P1;SDS_P2;PMS_P1;PMS_P2;Temp;Humidity;BMP_temperature;BMP_pressure;BME280_temperature;BME280_humidity;BME280_pressure;Samples;Min_cycle;Max_cycle;Signal;HPM_P1;HPM_P2
2022/01/18 00:01:00;;;;;;;40.42;8.82;;;6.20;99.90;;;;;;2233170;64;20194;-73
2022/01/18 00:03:36;;;;;;;35.58;8.05;;;6.20;99.90;;;;;;2229295;64;20247;-74
2022/01/18 00:06:30;;;;;;;31.73;9.25;;;6.10;99.90;;;;;;2222449;64;20163;-75
2022/01/18 00:09:20;;;;;;;37.70;8.82;;;6.10;99.90;;;;;;2219157;64;20171;-75
2022/01/18 00:12:14;;;;;;;30.63;8.65;;;5.90;99.90;;;;;;2214131;64;20197;-75
2022/01/18 00:23:27;;;;;;;34.90;8.68;;;5.60;99.90;;;;;;2198966;65;20181;-75
2022/01/18 00:26:12;;;;;;;40.17;9.07;;;5.60;99.90;;;;;;2199494;65;20237;-75
2022/01/18 00:28:59;;;;;;;47.47;9.38;;;5.50;99.90;;;;;;2199589;65;20181;-75
2022/01/18 00:32:00;;;;;;;39.95;10.23;;;5.50;99.90;;;;;;2189607;65;20353;-75
2022/01/18 00:34:46;;;;;;;43.88;9.60;;;5.50;99.90;;;;;;2198597;65;20387;-75
2022/01/18 00:37:36;;;;;;;42.40;9.02;;;5.40;99.90;;;;;;2195940;65;20373;-75
2022/01/18 00:40:18;;;;;;;43.85;9.48;;;5.40;99.90;;;;;;2191195;65;20161;-75
2022/01/18 00:43:00;;;;;;;36.47;7.93;;;5.30;99.90;;;;;;2176005;65;20305;-76
2022/01/18 00:45:43;;;;;;;51.70;11.93;;;5.40;99.90;;;;;;2183462;65;20357;-75
2022/01/18 00:48:26;;;;;;;37.90;8.98;;;5.30;99.90;;;;;;2179788;65;20256;-75
2022/01/18 00:51:11;;;;;;;43.28;9.50;;;5.30;99.90;;;;;;2188171;65;20163;-75
2022/01/18 00:53:57;;;;;;;46.13;10.23;;;5.40;99.90;;;;;;2181527;65;20236;-74
2022/01/18 00:56:43;;;;;;;42.53;8.18;;;5.40;99.90;;;;;;2169258;65;20373;-75
2022/01/18 00:59:27;;;;;;;36.45;8.73;;;5.40;99.90;;;;;;2165373;65;20172;-76
2022/01/18 01:02:14;;;;;;;39.97;8.25;;;5.40;99.90;;;;;;2164683;66;20332;-76
2022/01/18 01:04:58;;;;;;;42.05;9.63;;;5.40;99.90;;;;;;2165790;66;20243;-76
2022/01/18 01:07:40;;;;;;;41.55;9.13;;;5.40;99.90;;;;;;2159418;66;20253;-75
2022/01/18 01:10:23;;;;;;;36.63;8.52;;;5.40;99.90;;;;;;2155020;66;20246;-74
2022/01/18 01:13:05;;;;;;;45.03;9.55;;;5.50;99.90;;;;;;2133770;66;20327;-76
2022/01/18 01:44:47;;;;;;;41.88;9.70;;;5.20;99.90;;;;;;2147952;66;20208;-74
2022/01/18 01:47:36;;;;;;;44.58;9.18;;;5.20;99.90;;;;;;2141438;66;20258;-77
2022/01/18 01:50:21;;;;;;;37.78;7.80;;;5.40;99.90;;;;;;2145358;66;20219;-76
2022/01/18 01:53:05;;;;;;;38.88;7.97;;;5.30;99.90;;;;;;2155167;66;20252;-75
2022/01/18 01:55:52;;;;;;;34.45;8.43;;;5.30;99.90;;;;;;2148871;66;21041;-75
2022/01/18 01:58:34;;;;;;;44.40;9.30;;;5.40;99.90;;;;;;2159573;66;20181;-75
2022/01/18 02:01:19;;;;;;;30.52;7.78;;;5.40;99.90;;;;;;2159132;66;20211;-75
2022/01/18 02:04:02;;;;;;;49.58;8.98;;;5.50;99.90;;;;;;2159806;66;20177;-74
2022/01/18 02:06:44;;;;;;;41.33;7.88;;;5.60;99.90;;;;;;2145164;66;20460;-76
2022/01/18 02:09:29;;;;;;;39.53;8.43;;;5.60;99.90;;;;;;2152436;66;20349;-74
2022/01/18 02:12:13;;;;;;;39.05;7.00;;;5.70;99.90;;;;;;2151256;66;20298;-75
2022/01/18 02:14:59;;;;;;;27.85;6.70;;;5.80;99.90;;;;;;2153358;66;20415;-76
2022/01/18 02:24:13;;;;;;;25.30;6.30;;;5.90;99.90;;;;;;2131016;67;20246;-76
2022/01/18 02:26:55;;;;;;;29.33;6.67;;;6.00;99.90;;;;;;2171846;65;20285;-75
2022/01/18 02:29:37;;;;;;;24.40;6.82;;;6.10;99.90;;;;;;2157803;66;20314;-74
2022/01/18 02:32:21;;;;;;;25.70;5.57;;;6.00;99.90;;;;;;2148286;66;20395;-74
2022/01/18 02:35:05;;;;;;;29.05;7.47;;;6.00;99.90;;;;;;2131377;67;20268;-73
2022/01/18 02:37:54;;;;;;;36.28;7.20;;;5.90;99.90;;;;;;2136360;67;20392;-75
2022/01/18 02:40:41;;;;;;;30.00;6.68;;;6.00;99.90;;;;;;2140526;67;20232;-77
2022/01/18 02:46:23;;;;;;;25.30;6.55;;;6.00;99.90;;;;;;2135663;67;20558;-74
2022/01/18 02:49:05;;;;;;;19.55;5.70;;;6.10;99.90;;;;;;2139539;66;20231;-76
2022/01/18 02:51:47;;;;;;;26.15;5.65;;;6.10;99.90;;;;;;2151206;66;20363;-75
2022/01/18 02:54:28;;;;;;;27.63;6.45;;;6.10;99.90;;;;;;2155979;66;20264;-75
2022/01/18 02:57:13;;;;;;;27.38;5.82;;;6.10;99.90;;;;;;2143073;66;20845;-75
2022/01/18 03:00:19;;;;;;;23.95;5.32;;;6.40;99.90;;;;;;2144809;66;20276;-76
2022/01/18 03:03:15;;;;;;;19.20;4.78;;;6.20;99.90;;;;;;2155485;66;20260;-74
2022/01/18 03:05:58;;;;;;;21.08;3.97;;;6.20;99.90;;;;;;2160220;66;20685;-76
2022/01/18 03:08:40;;;;;;;22.45;4.95;;;6.30;99.90;;;;;;2154057;66;20225;-75
2022/01/18 03:11:22;;;;;;;24.90;4.70;;;6.30;99.90;;;;;;2146571;66;20272;-75
2022/01/18 03:14:04;;;;;;;25.27;4.97;;;6.30;99.90;;;;;;2130570;66;20234;-75
2022/01/18 03:16:46;;;;;;;15.45;4.40;;;6.30;99.90;;;;;;2139127;66;20167;-75
2022/01/18 03:19:29;;;;;;;19.65;5.57;;;6.40;99.90;;;;;;2132387;67;20192;-74
2022/01/18 03:22:11;;;;;;;17.15;4.43;;;6.40;99.90;;;;;;2135992;66;20195;-75
2022/01/18 03:25:03;;;;;;;18.60;4.25;;;6.50;99.90;;;;;;2127664;67;20255;-75
2022/01/18 03:28:05;;;;;;;21.67;4.95;;;6.40;99.90;;;;;;2125630;67;20208;-75
2022/01/18 03:30:49;;;;;;;16.48;4.85;;;6.40;99.90;;;;;;2143301;66;20661;-76
2022/01/18 03:33:31;;;;;;;16.33;4.18;;;6.40;99.90;;;;;;2138425;67;20880;-75
2022/01/18 03:36:14;;;;;;;12.43;3.25;;;6.40;99.90;;;;;;2122512;67;20350;-75
2022/01/18 03:38:59;;;;;;;14.95;4.25;;;6.40;99.90;;;;;;2131798;67;20700;-75
2022/01/18 03:41:40;;;;;;;16.90;3.83;;;6.40;99.90;;;;;;2120745;67;20337;-75
2022/01/18 03:44:25;;;;;;;12.95;4.03;;;6.40;99.90;;;;;;2112239;67;20285;-75
2022/01/18 03:47:09;;;;;;;17.15;4.18;;;6.40;99.90;;;;;;2121121;67;20230;-75
2022/01/18 03:49:51;;;;;;;12.93;3.63;;;6.40;99.90;;;;;;2118580;67;20621;-74
2022/01/18 03:52:33;;;;;;;15.43;4.13;;;6.40;99.90;;;;;;2107574;67;20241;-75
2022/01/18 03:55:18;;;;;;;15.98;4.22;;;6.40;99.90;;;;;;2109889;67;20222;-75
2022/01/18 03:58:01;;;;;;;21.08;4.72;;;6.50;99.90;;;;;;2111532;67;20327;-74
2022/01/18 04:00:45;;;;;;;12.20;3.50;;;6.40;99.90;;;;;;2116220;67;20290;-74
2022/01/18 04:03:27;;;;;;;11.32;3.65;;;6.40;99.90;;;;;;2133611;67;20383;-74
2022/01/18 04:06:10;;;;;;;13.30;3.53;;;6.40;99.90;;;;;;2119346;67;20314;-74
2022/01/18 04:08:53;;;;;;;16.58;4.53;;;6.50;99.90;;;;;;2117545;67;20245;-75
2022/01/18 04:11:39;;;;;;;13.63;3.38;;;6.50;99.90;;;;;;2130252;67;20202;-74
2022/01/18 04:14:24;;;;;;;11.57;3.13;;;6.40;99.90;;;;;;2130134;67;20467;-74
2022/01/18 04:17:33;;;;;;;13.00;3.22;;;6.40;99.90;;;;;;2118517;67;20266;-75
2022/01/18 04:29:09;;;;;;;14.40;2.80;;;6.40;99.90;;;;;;2110684;67;20186;-74
2022/01/18 04:31:59;;;;;;;8.57;2.70;;;6.40;99.90;;;;;;2029940;66;15099772;-74
2022/01/18 04:34:42;;;;;;;10.60;2.58;;;6.50;99.90;;;;;;2143996;66;20790;-74
2022/01/18 04:37:24;;;;;;;11.00;2.72;;;6.50;99.90;;;;;;2136720;67;20270;-75
2022/01/18 04:40:15;;;;;;;9.05;2.65;;;6.50;99.90;;;;;;2150408;66;20237;-74
2022/01/18 04:48:42;;;;;;;10.82;2.80;;;6.50;99.90;;;;;;2114924;67;20658;-75
2022/01/18 04:51:25;;;;;;;9.35;2.72;;;6.50;99.90;;;;;;2117736;67;20219;-75
2022/01/18 04:54:12;;;;;;;12.88;2.95;;;6.60;99.90;;;;;;2132353;67;20279;-75
2022/01/18 04:59:39;;;;;;;9.60;2.65;;;6.50;99.90;;;;;;2139598;66;20320;-74
2022/01/18 05:02:22;;;;;;;14.07;3.38;;;7.20;99.90;;;;;;2121329;67;20645;-75
2022/01/18 05:05:10;;;;;;;11.02;3.25;;;6.50;99.90;;;;;;2109110;67;20773;-75
2022/01/18 05:07:54;;;;;;;13.68;3.03;;;6.60;99.90;;;;;;2110883;67;20188;-74
2022/01/18 05:10:38;;;;;;;7.72;2.05;;;6.60;99.90;;;;;;2106933;67;20329;-75
2022/01/18 05:25:22;;;;;;;8.57;2.83;;;6.70;99.90;;;;;;2110186;67;20621;-74
2022/01/18 05:28:07;;;;;;;11.18;2.53;;;6.80;99.90;;;;;;2119389;67;20436;-74
2022/01/18 05:30:53;;;;;;;14.50;3.15;;;6.70;99.90;;;;;;2139851;66;20318;-75
2022/01/18 05:33:40;;;;;;;8.68;3.03;;;6.70;99.90;;;;;;2135040;66;20810;-75
2022/01/18 05:36:23;;;;;;;12.63;3.20;;;6.70;99.90;;;;;;2140042;66;20166;-74
2022/01/18 05:39:09;;;;;;;15.48;2.90;;;6.70;99.90;;;;;;2149616;66;20185;-74
2022/01/18 05:41:51;;;;;;;16.25;2.40;;;6.70;99.90;;;;;;2140395;66;20163;-74
2022/01/18 05:44:33;;;;;;;12.27;2.53;;;6.70;99.90;;;;;;2125030;67;20394;-75
2022/01/18 05:47:15;;;;;;;10.70;2.35;;;6.70;99.90;;;;;;2122041;67;20184;-74
2022/01/18 05:49:57;;;;;;;9.52;3.17;;;6.70;99.90;;;;;;2119030;67;20239;-75
2022/01/18 05:52:41;;;;;;;10.27;2.90;;;6.70;99.90;;;;;;2121306;67;20213;-75
2022/01/18 05:55:25;;;;;;;11.32;2.72;;;6.60;99.90;;;;;;2125239;67;20264;-75
2022/01/18 05:58:09;;;;;;;18.40;3.22;;;6.70;99.90;;;;;;2114309;67;20205;-75
2022/01/18 06:00:55;;;;;;;15.02;3.90;;;6.70;99.90;;;;;;2110850;67;20722;-74
2022/01/18 06:06:51;;;;;;;13.10;3.90;;;6.60;99.90;;;;;;2105064;67;20244;-74
2022/01/18 06:09:34;;;;;;;9.30;3.72;;;6.70;99.90;;;;;;2122057;67;20353;-74
2022/01/18 06:12:16;;;;;;;11.70;3.53;;;6.60;99.90;;;;;;2124503;67;20181;-75
2022/01/18 06:14:59;;;;;;;10.80;3.13;;;6.60;99.90;;;;;;2136224;66;20392;-74
2022/01/18 06:17:44;;;;;;;16.45;4.55;;;6.70;99.90;;;;;;2126629;67;20320;-75
2022/01/18 06:20:28;;;;;;;14.43;4.30;;;6.60;99.90;;;;;;2135441;67;20350;-74
2022/01/18 06:23:13;;;;;;;7.28;2.47;;;6.60;99.90;;;;;;2133209;67;20178;-74
2022/01/18 06:26:02;;;;;;;7.43;2.42;;;6.70;99.90;;;;;;2126357;67;20196;-74
2022/01/18 06:28:44;;;;;;;8.73;2.92;;;6.60;99.90;;;;;;2130628;67;20304;-77
2022/01/18 06:31:29;;;;;;;10.25;2.88;;;6.70;99.90;;;;;;2140782;67;20315;-75
2022/01/18 06:34:14;;;;;;;10.00;2.95;;;6.60;99.90;;;;;;2133662;67;20300;-74
2022/01/18 06:36:58;;;;;;;14.18;3.30;;;6.60;99.90;;;;;;2130906;67;20177;-75
2022/01/18 06:39:41;;;;;;;14.57;3.85;;;6.60;99.90;;;;;;2118411;67;20318;-74
2022/01/18 06:42:24;;;;;;;11.45;3.53;;;6.60;99.90;;;;;;2121103;67;20390;-74
2022/01/18 06:45:06;;;;;;;9.05;3.90;;;6.60;99.90;;;;;;2130407;67;20611;-74
2022/01/18 06:47:47;;;;;;;11.25;3.88;;;6.60;99.90;;;;;;2133381;67;20735;-75
2022/01/18 06:50:32;;;;;;;10.68;3.60;;;6.50;99.90;;;;;;2134439;66;20241;-74
2022/01/18 06:53:15;;;;;;;12.40;3.80;;;6.50;99.90;;;;;;2145480;66;20264;-75
2022/01/18 06:55:57;;;;;;;15.82;4.63;;;6.50;99.90;;;;;;2139467;66;20280;-75
2022/01/18 06:58:40;;;;;;;10.55;3.60;;;6.40;99.90;;;;;;2140396;67;20175;-74
2022/01/18 07:01:24;;;;;;;13.57;4.30;;;6.40;99.90;;;;;;2133223;67;20223;-74
2022/01/18 07:04:07;;;;;;;12.57;3.22;;;6.50;99.90;;;;;;2125685;67;20239;-74
2022/01/18 07:06:52;;;;;;;17.65;5.32;;;6.40;99.90;;;;;;2118133;67;20350;-74
2022/01/18 07:09:35;;;;;;;14.15;3.95;;;6.40;99.90;;;;;;2122673;67;20192;-74
2022/01/18 07:12:17;;;;;;;15.65;3.60;;;6.40;99.90;;;;;;2121108;67;20661;-74
2022/01/18 07:14:59;;;;;;;11.82;4.25;;;6.50;99.90;;;;;;2127779;67;20287;-75
2022/01/18 07:17:59;;;;;;;16.88;4.60;;;6.40;99.90;;;;;;2119634;67;20367;-75
2022/01/18 07:21:01;;;;;;;15.90;4.45;;;6.40;99.90;;;;;;2122712;67;20253;-75
2022/01/18 07:23:47;;;;;;;13.27;4.68;;;6.40;99.90;;;;;;2113680;67;20190;-75
2022/01/18 07:26:33;;;;;;;17.95;4.40;;;6.40;99.90;;;;;;2124025;67;20263;-73
2022/01/18 07:29:18;;;;;;;13.20;5.40;;;6.80;99.90;;;;;;2125079;67;20286;-72
2022/01/18 07:32:01;;;;;;;9.57;5.50;;;6.30;99.90;;;;;;2125333;67;20388;-78
2022/01/18 07:34:56;;;;;;;11.88;4.38;;;6.30;99.90;;;;;;2134483;67;20255;-75
2022/01/18 07:37:39;;;;;;;17.67;5.30;;;6.20;99.90;;;;;;2129790;67;20230;-75
2022/01/18 07:40:25;;;;;;;14.98;6.55;;;6.20;99.90;;;;;;2122594;67;20446;-74
2022/01/18 07:43:22;;;;;;;14.18;5.40;;;6.20;99.90;;;;;;2129735;67;20222;-74
2022/01/18 07:46:16;;;;;;;13.70;5.65;;;5.50;99.90;;;;;;2127272;67;20757;-74
2022/01/18 07:49:04;;;;;;;15.32;5.90;;;6.10;99.90;;;;;;2117058;67;20366;-73
2022/01/18 07:51:49;;;;;;;13.48;6.05;;;6.10;99.90;;;;;;2118115;67;20233;-72
2022/01/18 07:54:31;;;;;;;13.88;5.60;;;6.00;99.90;;;;;;2114296;67;20236;-75
2022/01/18 07:57:15;;;;;;;14.30;4.85;;;6.00;99.90;;;;;;2117870;67;20779;-74
2022/01/18 07:59:58;;;;;;;11.98;5.38;;;5.90;99.90;;;;;;2116384;67;20207;-73
2022/01/18 08:02:41;;;;;;;18.02;6.40;;;5.80;99.90;;;;;;2129475;67;20238;-72
2022/01/18 08:05:22;;;;;;;16.08;6.45;;;5.80;99.90;;;;;;2140727;66;20246;-73
2022/01/18 08:08:05;;;;;;;22.15;7.32;;;6.40;99.90;;;;;;2136563;66;20200;-74
2022/01/18 08:10:47;;;;;;;16.65;6.50;;;5.70;99.90;;;;;;2154258;66;20253;-75
2022/01/18 08:13:37;;;;;;;18.50;7.10;;;5.60;99.90;;;;;;2141959;66;20348;-78
2022/01/18 08:16:46;;;;;;;21.65;6.57;;;5.60;99.90;;;;;;2152286;66;20655;-78
2022/01/18 08:19:25;;;;;;;;;;;5.60;99.90;;;;;;2140946;66;20545;-71
2022/01/18 08:22:07;;;;;;;19.55;5.30;;;5.60;99.90;;;;;;2145708;66;20085;-75
2022/01/18 08:24:51;;;;;;;11.05;4.05;;;5.60;99.90;;;;;;2137291;67;20337;-76
2022/01/18 08:27:34;;;;;;;13.00;5.15;;;5.70;99.90;;;;;;2132411;67;20179;-76
2022/01/18 08:30:17;;;;;;;13.50;4.70;;;5.60;99.90;;;;;;2145086;66;20651;-75
2022/01/18 08:32:59;;;;;;;13.23;5.25;;;5.60;99.90;;;;;;2145950;66;20758;-76
2022/01/18 08:35:41;;;;;;;10.40;4.30;;;5.70;99.90;;;;;;2147874;66;20240;-75
2022/01/18 08:38:27;;;;;;;11.82;4.63;;;5.70;99.90;;;;;;2150552;66;20181;-75
2022/01/18 08:41:14;;;;;;;14.45;5.95;;;5.70;99.90;;;;;;2157815;66;20222;-74
2022/01/18 08:43:59;;;;;;;10.13;4.65;;;5.70;99.90;;;;;;2166550;66;20853;-74
2022/01/18 08:46:41;;;;;;;14.15;4.55;;;5.80;99.90;;;;;;2158761;66;20381;-75
2022/01/18 08:49:23;;;;;;;20.15;5.63;;;5.80;99.90;;;;;;2152846;66;20241;-76
2022/01/18 08:52:05;;;;;;;13.48;4.30;;;5.90;99.90;;;;;;2147920;66;20683;-75
2022/01/18 08:54:47;;;;;;;12.00;4.25;;;6.00;99.90;;;;;;2153286;66;20346;-74
2022/01/18 08:57:29;;;;;;;14.77;5.18;;;6.10;99.90;;;;;;2152265;66;20354;-76
2022/01/18 09:00:14;;;;;;;12.13;4.15;;;6.10;99.90;;;;;;2150478;66;20208;-75
2022/01/18 09:02:58;;;;;;;12.68;4.47;;;6.20;99.90;;;;;;2142007;66;20735;-76
2022/01/18 09:05:44;;;;;;;;;;;6.20;99.90;;;;;;2147212;66;20787;-74
2022/01/18 09:08:27;;;;;;;8.25;3.30;;;6.30;99.90;;;;;;2152629;66;20139;-74
2022/01/18 09:11:13;;;;;;;8.80;4.20;;;6.30;99.90;;;;;;2134087;67;20250;-74
2022/01/18 09:14:12;;;;;;;13.25;4.22;;;6.40;99.90;;;;;;2145971;66;21025;-75
2022/01/18 09:16:54;;;;;;;12.85;5.18;;;6.50;99.90;;;;;;2153712;66;20408;-74
2022/01/18 09:19:35;;;;;;;15.90;5.03;;;6.50;99.90;;;;;;2149498;66;20334;-75
2022/01/18 09:22:19;;;;;;;10.75;4.38;;;6.50;99.90;;;;;;2151890;66;20229;-72
2022/01/18 09:25:06;;;;;;;8.23;3.63;;;6.60;99.90;;;;;;2173640;65;20344;-76
2022/01/18 09:27:51;;;;;;;10.88;4.18;;;6.70;99.90;;;;;;2159750;66;20212;-80
2022/01/18 09:30:29;;;;;;;9.98;4.60;;;6.70;99.90;;;;;;2151124;66;20314;-72
2022/01/18 09:33:08;;;;;;;11.30;4.57;;;7.30;99.90;;;;;;2159781;66;20606;-75
2022/01/18 09:35:48;;;;;;;14.02;4.03;;;6.80;99.90;;;;;;2160212;66;20246;-74
2022/01/18 09:38:25;;;;;;;16.30;4.32;;;6.80;99.90;;;;;;2153771;66;20381;-74
2022/01/18 09:41:17;;;;;;;12.38;4.30;;;6.90;99.90;;;;;;2148999;66;20189;-73
2022/01/18 09:43:57;;;;;;;17.77;5.03;;;7.00;99.90;;;;;;2143041;66;20178;-73
2022/01/18 09:46:52;;;;;;;12.70;5.10;;;7.10;99.90;;;;;;2134265;67;20219;-75
2022/01/18 09:49:28;;;;;;;12.75;4.32;;;7.10;99.90;;;;;;2130620;67;20223;-81
2022/01/18 09:52:08;;;;;;;21.65;4.88;;;7.10;99.90;;;;;;2141623;66;20202;-78
2022/01/18 09:54:47;;;;;;;11.40;4.88;;;7.10;99.90;;;;;;2153747;66;20193;-77
2022/01/18 09:57:25;;;;;;;12.85;5.15;;;7.10;99.90;;;;;;2172765;65;20365;-73
2022/01/18 10:00:01;;;;;;;14.77;4.20;;;7.20;99.90;;;;;;2211582;64;20269;-83
2022/01/18 10:02:52;;;;;;;14.95;5.55;;;7.20;99.90;;;;;;2206755;65;20352;-73
2022/01/18 10:05:52;;;;;;;14.85;5.05;;;7.20;99.90;;;;;;2198947;65;20727;-75
2022/01/18 10:08:29;;;;;;;17.85;5.70;;;7.20;99.90;;;;;;2199372;65;20165;-75
2022/01/18 10:11:38;;;;;;;14.13;5.13;;;7.80;99.90;;;;;;2198218;65;20237;-76
2022/01/18 10:14:31;;;;;;;16.75;5.65;;;7.20;99.90;;;;;;2190274;65;20303;-75
2022/01/18 10:17:11;;;;;;;15.10;4.95;;;7.30;99.90;;;;;;2191813;65;20166;-74
2022/01/18 10:19:50;;;;;;;13.18;4.40;;;7.40;99.90;;;;;;2191826;65;20174;-75
2022/01/18 10:22:40;;;;;;;18.30;5.80;;;7.50;99.90;;;;;;2200328;65;20215;-73
2022/01/18 10:25:26;;;;;;;9.02;4.50;;;7.70;99.90;;;;;;2210449;64;20215;-75
2022/01/18 10:27:56;;;;;;;9.02;4.00;;;7.50;99.90;;;;;;2207402;64;20690;-76
2022/01/18 10:30:47;;;;;;;11.80;4.32;;;7.60;99.90;;;;;;2201367;65;20360;-73
2022/01/18 10:33:35;;;;;;;9.18;3.35;;;7.60;99.90;;;;;;2207291;64;20892;-76
2022/01/18 10:36:18;;;;;;;11.23;4.25;;;7.70;99.90;;;;;;2192736;64;20463;-71
2022/01/18 10:39:03;;;;;;;10.40;3.45;;;7.80;99.90;;;;;;2199816;65;20322;-73
2022/01/18 10:41:50;;;;;;;11.38;4.43;;;7.90;99.90;;;;;;2191927;65;20165;-74
2022/01/18 10:44:34;;;;;;;10.15;4.22;;;7.90;99.90;;;;;;2194971;65;20562;-74
2022/01/18 10:47:17;;;;;;;11.85;3.65;;;7.90;99.90;;;;;;2183380;65;20229;-75
2022/01/18 10:50:17;;;;;;;13.88;4.75;;;7.80;99.90;;;;;;2175739;65;20280;-75
2022/01/18 10:53:25;;;;;;;11.05;4.45;;;7.70;99.90;;;;;;2168942;65;20825;-76
2022/01/18 10:56:16;;;;;;;8.85;3.72;;;7.80;99.90;;;;;;2163568;66;20451;-75
2022/01/18 10:59:01;;;;;;;11.25;3.45;;;7.90;99.90;;;;;;2162240;66;20201;-75
2022/01/18 11:01:43;;;;;;;9.18;3.00;;;7.90;99.90;;;;;;2153336;66;20313;-76
2022/01/18 11:04:27;;;;;;;10.45;4.30;;;7.90;99.90;;;;;;2160767;66;20752;-75
2022/01/18 11:07:13;;;;;;;9.07;4.68;;;7.70;99.90;;;;;;2158522;66;20779;-81
2022/01/18 11:10:03;;;;;;;11.57;3.92;;;7.60;99.90;;;;;;2155103;66;20185;-79
2022/01/18 11:13:04;;;;;;;12.80;4.55;;;7.50;99.90;;;;;;2134794;67;20345;-79
2022/01/18 11:15:53;;;;;;;8.75;4.35;;;7.50;99.90;;;;;;2133937;67;20331;-77
2022/01/18 11:18:37;;;;;;;7.38;4.03;;;7.50;99.90;;;;;;2132725;67;20234;-78
2022/01/18 11:21:24;;;;;;;10.43;3.17;;;7.50;99.90;;;;;;2121285;67;20794;-74
2022/01/18 11:24:14;;;;;;;13.55;3.92;;;7.50;99.90;;;;;;2117877;67;20726;-80
2022/01/18 11:27:00;;;;;;;8.65;2.92;;;7.50;99.90;;;;;;2110655;67;20201;-80
2022/01/18 11:29:49;;;;;;;9.98;3.10;;;7.50;99.90;;;;;;2108289;67;20378;-77
2022/01/18 11:32:32;;;;;;;9.20;3.03;;;7.60;99.90;;;;;;2109960;67;20257;-75
2022/01/18 11:35:38;;;;;;;10.88;3.42;;;7.70;99.90;;;;;;2131714;67;20215;-75
2022/01/18 11:39:08;;;;;;;8.50;2.92;;;7.70;99.90;;;;;;2135339;67;20291;-74
2022/01/18 11:42:05;;;;;;;10.32;2.97;;;7.70;99.90;;;;;;2124188;67;20372;-75
2022/01/18 11:44:47;;;;;;;9.65;3.10;;;7.80;99.90;;;;;;2123215;67;20198;-77
2022/01/18 11:47:30;;;;;;;7.38;2.47;;;8.00;99.90;;;;;;2112797;67;20256;-78
2022/01/18 11:50:16;;;;;;;9.73;2.72;;;8.60;99.90;;;;;;2101206;67;20247;-77
2022/01/18 11:53:38;;;;;;;6.95;3.08;;;8.10;99.90;;;;;;2116878;67;20688;-76
2022/01/18 11:56:40;;;;;;;10.07;3.03;;;7.90;99.90;;;;;;2111848;67;20430;-77
2022/01/18 11:59:27;;;;;;;10.30;3.05;;;8.10;99.90;;;;;;2116326;67;20252;-77
2022/01/18 12:02:10;;;;;;;13.02;3.33;;;8.10;99.90;;;;;;2116452;67;20184;-76
2022/01/18 12:04:54;;;;;;;6.07;2.78;;;8.00;99.90;;;;;;2107388;67;20636;-77
2022/01/18 12:07:50;;;;;;;7.07;3.10;;;8.10;99.90;;;;;;2110520;67;20298;-76
2022/01/18 12:10:34;;;;;;;8.70;3.30;;;8.10;99.90;;;;;;2104969;67;20193;-77
2022/01/18 12:13:33;;;;;;;6.65;2.95;;;8.20;99.90;;;;;;2110170;67;20247;-76
2022/01/18 12:16:25;;;;;;;8.13;3.30;;;8.00;99.90;;;;;;2115160;67;20262;-77
2022/01/18 12:19:12;;;;;;;10.98;3.60;;;7.90;99.90;;;;;;2112206;67;20574;-76
2022/01/18 12:21:58;;;;;;;12.57;3.72;;;6.90;99.90;;;;;;2119323;67;20204;-77
2022/01/18 12:24:45;;;;;;;9.23;3.55;;;7.80;99.90;;;;;;2124257;67;20393;-75
2022/01/18 12:27:32;;;;;;;6.88;3.65;;;7.70;99.90;;;;;;2119164;67;20206;-76
2022/01/18 12:31:34;;;;;;;8.70;3.83;;;7.60;99.90;;;;;;2126132;67;20205;-74
2022/01/18 12:33:44;;;;;;;7.47;3.92;;;7.70;99.90;;;;;;2114800;67;20292;-74
2022/01/18 12:36:30;;;;;;;11.00;4.65;;;7.70;99.90;;;;;;2116287;67;20253;-76
2022/01/18 12:39:12;;;;;;;10.82;5.10;;;7.70;99.90;;;;;;2116582;67;20261;-74
2022/01/18 12:41:58;;;;;;;8.63;3.85;;;7.70;99.90;;;;;;2116260;67;20665;-76
2022/01/18 12:44:45;;;;;;;9.35;4.95;;;7.80;99.90;;;;;;2129228;67;20164;-75
2022/01/18 12:47:27;;;;;;;14.70;4.85;;;7.70;99.90;;;;;;2123532;67;20169;-74
2022/01/18 12:50:11;;;;;;;12.32;5.10;;;7.70;99.90;;;;;;2131553;67;20234;-76
2022/01/18 12:52:55;;;;;;;13.13;4.70;;;7.70;99.90;;;;;;2126370;67;20345;-77
2022/01/18 12:55:47;;;;;;;12.88;4.75;;;7.70;99.90;;;;;;2140410;66;20273;-75
2022/01/18 12:58:35;;;;;;;14.70;5.22;;;7.60;99.90;;;;;;2134752;66;20237;-74
2022/01/18 13:01:20;;;;;;;10.07;4.47;;;7.60;99.90;;;;;;2134494;67;20772;-73
2022/01/18 13:04:06;;;;;;;11.82;5.07;;;7.60;99.90;;;;;;2129719;67;20247;-74
2022/01/18 13:06:51;;;;;;;;;;;7.70;99.90;;;;;;2149476;66;20245;-71
2022/01/18 13:09:58;;;;;;;13.90;4.75;;;7.70;99.90;;;;;;2163707;66;20066;-74
2022/01/18 13:12:44;;;;;;;19.77;5.93;;;7.60;99.90;;;;;;2154554;66;20311;-75
2022/01/18 13:25:08;;;;;;;13.85;5.18;;;7.70;99.90;;;;;;2140472;66;20242;-74
2022/01/18 13:28:00;;;;;;;18.73;5.13;;;7.90;99.90;;;;;;2147568;66;20608;-76
2022/01/18 13:30:43;;;;;;;15.10;5.88;;;8.10;99.90;;;;;;2138966;67;20195;-77
2022/01/18 13:33:29;;;;;;;11.35;5.18;;;8.20;99.90;;;;;;2121706;67;20187;-74
2022/01/18 13:36:12;;;;;;;13.25;5.90;;;8.10;99.90;;;;;;2134752;67;20299;-78
2022/01/18 13:38:54;;;;;;;13.60;6.40;;;8.00;99.90;;;;;;2139229;66;20275;-77
2022/01/18 13:41:38;;;;;;;10.18;5.30;;;7.90;99.90;;;;;;2132447;67;20239;-76
2022/01/18 13:44:21;;;;;;;13.18;7.15;;;7.90;99.90;;;;;;2122565;67;20313;-76
2022/01/18 13:48:00;;;;;;;13.68;4.78;;;8.00;99.90;;;;;;2112143;67;20788;-76
2022/01/18 13:50:46;;;;;;;15.00;5.60;;;8.10;99.90;;;;;;2107625;67;20531;-73
2022/01/18 13:53:33;;;;;;;13.27;5.55;;;8.20;99.90;;;;;;2106887;67;20194;-75
2022/01/18 13:56:20;;;;;;;15.05;5.95;;;8.30;99.90;;;;;;2094906;68;20364;-76
2022/01/18 13:59:08;;;;;;;13.52;4.95;;;8.30;99.90;;;;;;2097676;68;20259;-73
2022/01/18 14:01:50;;;;;;;14.55;5.40;;;8.30;99.90;;;;;;2103391;67;20261;-79
2022/01/18 14:04:32;;;;;;;13.40;5.75;;;8.20;99.90;;;;;;2111973;67;21312;-73
2022/01/18 14:07:14;;;;;;;13.82;6.05;;;8.20;99.90;;;;;;2118627;67;20184;-73
2022/01/18 14:10:00;;;;;;;13.73;6.05;;;8.10;99.90;;;;;;2111634;67;20306;-74
2022/01/18 14:12:42;;;;;;;17.13;6.18;;;8.10;99.90;;;;;;2114067;67;20197;-74
2022/01/18 14:15:37;;;;;;;11.65;5.45;;;8.30;99.90;;;;;;2114662;67;20259;-74
2022/01/18 14:18:19;;;;;;;14.02;5.95;;;7.90;99.90;;;;;;2110931;67;20212;-74
2022/01/18 14:21:03;;;;;;;11.00;5.60;;;7.80;99.90;;;;;;2111764;67;20334;-73
2022/01/18 14:24:11;;;;;;;;;;;7.70;99.90;;;;;;2103261;68;20446;-76
2022/01/18 14:26:52;;;;;;;11.50;6.03;;;7.70;99.90;;;;;;2093833;68;20067;-82
2022/01/18 14:29:42;;;;;;;14.55;6.22;;;7.40;99.90;;;;;;2082111;68;20422;-79
2022/01/18 14:32:30;;;;;;;12.18;5.80;;;7.60;99.90;;;;;;2083377;68;20942;-74
2022/01/18 14:35:22;;;;;;;13.55;5.28;;;7.60;99.90;;;;;;2093867;68;20734;-76
2022/01/18 14:38:08;;;;;;;15.88;6.70;;;7.50;99.90;;;;;;2085946;68;20345;-76
2022/01/18 14:40:53;;;;;;;13.65;5.88;;;7.40;99.90;;;;;;2099619;68;20179;-75
2022/01/18 14:43:41;;;;;;;14.27;6.10;;;7.30;99.90;;;;;;2088781;68;20380;-74
2022/01/18 14:46:37;;;;;;;13.80;6.07;;;7.30;99.90;;;;;;2104686;67;20274;-75
2022/01/18 14:49:21;;;;;;;13.82;5.85;;;7.20;99.90;;;;;;2102355;67;20263;-75
2022/01/18 14:52:04;;;;;;;10.35;5.60;;;7.10;99.90;;;;;;2103429;67;20242;-78
2022/01/18 14:54:47;;;;;;;11.57;4.95;;;7.00;99.90;;;;;;2107835;67;20198;-75
2022/01/18 14:57:30;;;;;;;11.15;5.47;;;7.00;99.90;;;;;;2118221;67;20314;-75
2022/01/18 15:00:16;;;;;;;12.45;5.65;;;6.90;99.90;;;;;;2112937;67;20389;-73
2022/01/18 15:02:58;;;;;;;15.95;5.43;;;6.90;99.90;;;;;;2099292;67;20316;-75
2022/01/18 15:05:40;;;;;;;16.55;6.47;;;6.80;99.90;;;;;;2098662;68;20296;-75
2022/01/18 15:08:22;;;;;;;17.48;5.65;;;6.80;99.90;;;;;;2101598;67;20741;-74
2022/01/18 15:11:04;;;;;;;12.57;5.90;;;6.80;99.90;;;;;;2091489;68;20278;-76
2022/01/18 15:13:47;;;;;;;11.05;6.32;;;6.70;99.90;;;;;;2091408;68;20712;-75
2022/01/18 15:16:34;;;;;;;20.85;6.95;;;6.70;99.90;;;;;;2094572;68;20311;-75
2022/01/18 15:19:19;;;;;;;16.45;6.57;;;6.70;99.90;;;;;;2094463;67;20567;-75
2022/01/18 15:22:01;;;;;;;17.48;7.20;;;6.60;99.90;;;;;;2094399;68;20411;-73
2022/01/18 15:24:44;;;;;;;13.40;6.72;;;6.60;99.90;;;;;;2090246;68;20327;-74
2022/01/18 15:27:29;;;;;;;19.13;7.13;;;6.60;99.90;;;;;;2095359;68;20184;-75
2022/01/18 15:30:14;;;;;;;19.88;7.57;;;6.50;99.90;;;;;;2093756;68;20435;-75
2022/01/18 15:32:57;;;;;;;17.55;9.13;;;7.00;99.90;;;;;;2093269;68;20230;-73
2022/01/18 15:35:39;;;;;;;16.75;8.07;;;6.50;99.90;;;;;;2096457;68;20780;-73
2022/01/18 15:38:21;;;;;;;19.10;8.52;;;6.50;99.90;;;;;;2095848;68;20183;-75
2022/01/18 15:41:04;;;;;;;21.10;8.60;;;6.40;99.90;;;;;;2111622;67;20482;-75
2022/01/18 15:43:50;;;;;;;18.45;8.60;;;6.40;99.90;;;;;;2131626;66;20333;-73
2022/01/18 15:46:37;;;;;;;18.30;9.10;;;6.40;99.90;;;;;;2138726;66;20422;-74
2022/01/18 15:49:21;;;;;;;21.63;9.65;;;6.30;99.90;;;;;;2126724;67;20213;-75
2022/01/18 15:52:02;;;;;;;25.13;10.57;;;6.30;99.90;;;;;;2122616;67;20306;-75
2022/01/18 15:54:44;;;;;;;23.17;11.57;;;6.30;99.90;;;;;;2130608;67;20336;-75